sensor_id;sensor_type;location;lat;lon;timestamp;temperature;humidity
9998;DHT22;5038;53.064;8.624;2022-11-20T00:00:57;1.10;99.90
9998;DHT22;5038;53.064;8.624;2022-11-20T00:03:25;1.10;99.90
9998;DHT22;5038;53.064;8.624;2022-11-20T00:05:58;1.10;99.90
9998;DHT22;5038;53.064;8.624;2022-11-20T00:08:26;1.10;99.90
9998;DHT22;5038;53.064;8.624;2022-11-20T00:10:55;1.10;99.90
9998;DHT22;5038;53.064;8.624;2022-11-20T00:13:23;1.10;99.90
9998;DHT22;5038;53.064;8.624;2022-11-20T00:15:57;1.10;99.90
9998;DHT22;5038;53.064;8.624;2022-11-20T00:18:25;1.10;99.90
9998;DHT22;5038;53.064;8.624;2022-11-20T00:21:00;1.20;99.90
9998;DHT22;5038;53.064;8.624;2022-11-20T00:23:29;1.20;99.90
9998;DHT22;5038;53.064;8.624;2022-11-20T00:26:01;1.20;99.90
9998;DHT22;5038;53.064;8.624;2022-11-20T00:28:30;1.20;99.90
9998;DHT22;5038;53.064;8.624;2022-11-20T00:31:02;1.20;99.90
9998;DHT22;5038;53.064;8.624;2022-11-20T00:33:30;1.20;99.90
9998;DHT22;5038;53.064;8.624;2022-11-20T00:36:04;1.20;99.90
9998;DHT22;5038;53.064;8.624;2022-11-20T00:38:33;1.20;99.90
9998;DHT22;5038;53.064;8.624;2022-11-20T00:41:03;1.20;99.90
9998;DHT22;5038;53.064;8.624;2022-11-20T00:43:32;1.20;99.90
9998;DHT22;5038;53.064;8.624;2022-11-20T00:46:04;1.20;99.90
9998;DHT22;5038;53.064;8.624;2022-11-20T00:48:33;1.20;99.90
9998;DHT22;5038;53.064;8.624;2022-11-20T00:51:02;1.20;99.90
9998;DHT22;5038;53.064;8.624;2022-11-20T00:53:30;1.20;99.90
9998;DHT22;5038;53.064;8.624;2022-11-20T00:56:00;1.20;99.90
9998;DHT22;5038;53.064;8.624;2022-11-20T00:58:30;1.20;99.90
9998;DHT22;5038;53.064;8.624;2022-11-20T01:01:03;1.30;99.90
9998;DHT22;5038;53.064;8.624;2022-11-20T01:03:32;1.30;99.90
9998;DHT22;5038;53.064;8.624;2022-11-20T01:06:03;1.30;99.90
9998;DHT22;5038;53.064;8.624;2022-11-20T01:08:32;1.30;99.90
9998;DHT22;5038;53.064;8.624;2022-11-20T01:11:01;1.30;99.90
9998;DHT22;5038;53.064;8.624;2022-11-20T01:13:30;1.30;99.90
9998;DHT22;5038;53.064;8.624;2022-11-20T01:16:07;1.30;99.90
9998;DHT22;5038;53.064;8.624;2022-11-20T01:18:36;1.30;99.90
9998;DHT22;5038;53.064;8.624;2022-11-20T01:21:08;1.30;99.90
9998;DHT22;5038;53.064;8.624;2022-11-20T01:23:38;1.30;99.90
9998;DHT22;5038;53.064;8.624;2022-11-20T01:26:08;1.30;99.90
9998;DHT22;5038;53.064;8.624;2022-11-20T01:28:37;1.40;99.90
9998;DHT22;5038;53.064;8.624;2022-11-20T01:31:11;1.40;99.90
9998;DHT22;5038;53.064;8.624;2022-11-20T01:33:40;1.40;99.90
9998;DHT22;5038;53.064;8.624;2022-11-20T01:36:11;1.40;99.90
9998;DHT22;5038;53.064;8.624;2022-11-20T01:38:40;1.40;99.90
9998;DHT22;5038;53.064;8.624;2022-11-20T01:41:09;1.40;99.90
9998;DHT22;5038;53.064;8.624;2022-11-20T01:43:37;1.40;99.90
9998;DHT22;5038;53.064;8.624;2022-11-20T01:46:13;1.40;99.90
9998;DHT22;5038;53.064;8.624;2022-11-20T01:48:47;1.40;99.90
9998;DHT22;5038;53.064;8.624;2022-11-20T01:51:25;1.40;99.90
9998;DHT22;5038;53.064;8.624;2022-11-20T01:53:55;1.40;99.90
9998;DHT22;5038;53.064;8.624;2022-11-20T01:56:27;1.40;99.90
9998;DHT22;5038;53.064;8.624;2022-11-20T01:58:58;1.40;99.90
9998;DHT22;5038;53.064;8.624;2022-11-20T02:01:28;1.40;99.90
9998;DHT22;5038;53.064;8.624;2022-11-20T02:03:58;1.40;99.90
9998;DHT22;5038;53.064;8.624;2022-11-20T02:06:30;1.40;99.90
9998;DHT22;5038;53.064;8.624;2022-11-20T02:08:59;1.50;99.90
9998;DHT22;5038;53.064;8.624;2022-11-20T02:11:27;1.50;99.90
9998;DHT22;5038;53.064;8.624;2022-11-20T02:13:55;1.50;99.90
9998;DHT22;5038;53.064;8.624;2022-11-20T02:16:24;1.50;99.90
9998;DHT22;5038;53.064;8.624;2022-11-20T02:18:55;1.50;99.90
9998;DHT22;5038;53.064;8.624;2022-11-20T02:21:33;1.50;99.90
9998;DHT22;5038;53.064;8.624;2022-11-20T02:24:06;1.50;99.90
9998;DHT22;5038;53.064;8.624;2022-11-20T02:26:40;1.50;99.90
9998;DHT22;5038;53.064;8.624;2022-11-20T02:29:09;1.40;99.90
9998;DHT22;5038;53.064;8.624;2022-11-20T02:31:40;1.50;99.90
9998;DHT22;5038;53.064;8.624;2022-11-20T02:34:09;1.50;99.90
9998;DHT22;5038;53.064;8.624;2022-11-20T02:36:39;1.50;99.90
9998;DHT22;5038;53.064;8.624;2022-11-20T02:39:11;1.50;99.90
9998;DHT22;5038;53.064;8.624;2022-11-20T02:41:43;1.50;99.90
9998;DHT22;5038;53.064;8.624;2022-11-20T02:44:12;1.50;99.90
9998;DHT22;5038;53.064;8.624;2022-11-20T02:46:40;1.50;99.90
9998;DHT22;5038;53.064;8.624;2022-11-20T02:49:08;1.50;99.90
9998;DHT22;5038;53.064;8.624;2022-11-20T02:51:36;1.50;99.90
9998;DHT22;5038;53.064;8.624;2022-11-20T02:54:04;1.50;99.90
9998;DHT22;5038;53.064;8.624;2022-11-20T02:56:34;1.50;99.90
9998;DHT22;5038;53.064;8.624;2022-11-20T02:59:02;1.50;99.90
9998;DHT22;5038;53.064;8.624;2022-11-20T03:01:31;1.50;99.90
9998;DHT22;5038;53.064;8.624;2022-11-20T03:03:59;1.50;99.90
9998;DHT22;5038;53.064;8.624;2022-11-20T03:06:27;1.50;99.90
9998;DHT22;5038;53.064;8.624;2022-11-20T03:08:55;1.50;99.90
9998;DHT22;5038;53.064;8.624;2022-11-20T03:11:23;1.50;99.90
9998;DHT22;5038;53.064;8.624;2022-11-20T03:13:53;1.50;99.90
9998;DHT22;5038;53.064;8.624;2022-11-20T03:16:22;1.50;99.90
9998;DHT22;5038;53.064;8.624;2022-11-20T03:18:52;1.50;99.90
9998;DHT22;5038;53.064;8.624;2022-11-20T03:21:20;1.50;99.90
9998;DHT22;5038;53.064;8.624;2022-11-20T03:23:48;1.50;99.90
9998;DHT22;5038;53.064;8.624;2022-11-20T03:26:18;1.50;99.90
9998;DHT22;5038;53.064;8.624;2022-11-20T03:28:49;1.60;99.90
9998;DHT22;5038;53.064;8.624;2022-11-20T03:31:22;1.50;99.90
9998;DHT22;5038;53.064;8.624;2022-11-20T03:33:50;1.60;99.90
9998;DHT22;5038;53.064;8.624;2022-11-20T03:36:19;1.60;99.90
9998;DHT22;5038;53.064;8.624;2022-11-20T03:38:48;1.60;99.90
9998;DHT22;5038;53.064;8.624;2022-11-20T03:41:18;1.60;99.90
9998;DHT22;5038;53.064;8.624;2022-11-20T03:43:47;1.60;99.90
9998;DHT22;5038;53.064;8.624;2022-11-20T03:46:16;1.60;99.90
9998;DHT22;5038;53.064;8.624;2022-11-20T03:48:45;1.60;99.90
9998;DHT22;5038;53.064;8.624;2022-11-20T03:51:20;1.50;99.90
9998;DHT22;5038;53.064;8.624;2022-11-20T03:53:50;1.60;99.90
9998;DHT22;5038;53.064;8.624;2022-11-20T03:56:20;1.60;99.90
9998;DHT22;5038;53.064;8.624;2022-11-20T03:58:48;1.60;99.90
9998;DHT22;5038;53.064;8.624;2022-11-20T04:01:18;1.60;99.90
9998;DHT22;5038;53.064;8.624;2022-11-20T04:03:48;1.60;99.90
9998;DHT22;5038;53.064;8.624;2022-11-20T04:06:18;1.60;99.90
9998;DHT22;5038;53.064;8.624;2022-11-20T04:08:46;1.60;99.90
9998;DHT22;5038;53.064;8.624;2022-11-20T04:11:21;1.60;99.90
9998;DHT22;5038;53.064;8.624;2022-11-20T04:13:53;1.60;99.90
9998;DHT22;5038;53.064;8.624;2022-11-20T04:16:44;1.60;99.90
9998;DHT22;5038;53.064;8.624;2022-11-20T04:19:15;1.70;99.90
9998;DHT22;5038;53.064;8.624;2022-11-20T04:21:43;1.60;99.90
9998;DHT22;5038;53.064;8.624;2022-11-20T04:24:12;1.60;99.90
9998;DHT22;5038;53.064;8.624;2022-11-20T04:26:40;1.60;99.90
9998;DHT22;5038;53.064;8.624;2022-11-20T04:29:10;1.60;99.90
9998;DHT22;5038;53.064;8.624;2022-11-20T04:31:38;1.70;99.90
9998;DHT22;5038;53.064;8.624;2022-11-20T04:34:07;1.70;99.90
9998;DHT22;5038;53.064;8.624;2022-11-20T04:36:36;1.60;99.90
9998;DHT22;5038;53.064;8.624;2022-11-20T04:39:06;1.60;99.90
9998;DHT22;5038;53.064;8.624;2022-11-20T04:41:35;1.60;99.90
9998;DHT22;5038;53.064;8.624;2022-11-20T04:44:05;1.60;99.90
9998;DHT22;5038;53.064;8.624;2022-11-20T04:46:35;1.60;99.90
9998;DHT22;5038;53.064;8.624;2022-11-20T04:49:04;1.60;99.90
9998;DHT22;5038;53.064;8.624;2022-11-20T04:51:32;1.60;99.90
9998;DHT22;5038;53.064;8.624;2022-11-20T04:54:02;1.60;99.90
9998;DHT22;5038;53.064;8.624;2022-11-20T04:56:30;1.60;99.90
9998;DHT22;5038;53.064;8.624;2022-11-20T04:59:00;1.60;99.90
9998;DHT22;5038;53.064;8.624;2022-11-20T05:01:29;1.60;99.90
9998;DHT22;5038;53.064;8.624;2022-11-20T05:03:57;1.60;99.90
9998;DHT22;5038;53.064;8.624;2022-11-20T05:06:25;1.60;99.90
9998;DHT22;5038;53.064;8.624;2022-11-20T05:08:53;1.60;99.90
9998;DHT22;5038;53.064;8.624;2022-11-20T05:11:22;1.60;99.90
9998;DHT22;5038;53.064;8.624;2022-11-20T05:13:51;1.60;99.90
9998;DHT22;5038;53.064;8.624;2022-11-20T05:16:21;1.70;99.90
9998;DHT22;5038;53.064;8.624;2022-11-20T05:18:50;1.70;99.90
9998;DHT22;5038;53.064;8.624;2022-11-20T05:21:20;1.70;99.90
9998;DHT22;5038;53.064;8.624;2022-11-20T05:23:48;1.70;99.90
9998;DHT22;5038;53.064;8.624;2022-11-20T05:26:18;1.70;99.90
9998;DHT22;5038;53.064;8.624;2022-11-20T05:28:49;1.60;99.90
9998;DHT22;5038;53.064;8.624;2022-11-20T05:31:19;1.70;99.90
9998;DHT22;5038;53.064;8.624;2022-11-20T05:33:53;1.60;99.90
9998;DHT22;5038;53.064;8.624;2022-11-20T05:36:22;1.60;99.90
9998;DHT22;5038;53.064;8.624;2022-11-20T05:38:50;1.60;99.90
9998;DHT22;5038;53.064;8.624;2022-11-20T05:41:25;1.60;99.90
9998;DHT22;5038;53.064;8.624;2022-11-20T05:43:56;1.60;99.90
9998;DHT22;5038;53.064;8.624;2022-11-20T05:46:24;1.70;99.90
9998;DHT22;5038;53.064;8.624;2022-11-20T05:48:55;1.70;99.90
9998;DHT22;5038;53.064;8.624;2022-11-20T05:51:25;1.60;99.90
9998;DHT22;5038;53.064;8.624;2022-11-20T05:53:53;1.60;99.90
9998;DHT22;5038;53.064;8.624;2022-11-20T05:56:21;1.60;99.90
9998;DHT22;5038;53.064;8.624;2022-11-20T05:58:50;1.70;99.90
9998;DHT22;5038;53.064;8.624;2022-11-20T06:01:21;1.70;99.90
9998;DHT22;5038;53.064;8.624;2022-11-20T06:03:49;1.70;99.90
9998;DHT22;5038;53.064;8.624;2022-11-20T06:06:18;1.70;99.90
9998;DHT22;5038;53.064;8.624;2022-11-20T06:08:47;1.70;99.90
9998;DHT22;5038;53.064;8.624;2022-11-20T06:11:16;1.70;99.90
9998;DHT22;5038;53.064;8.624;2022-11-20T06:13:45;1.70;99.90
9998;DHT22;5038;53.064;8.624;2022-11-20T06:16:15;1.70;99.90
9998;DHT22;5038;53.064;8.624;2022-11-20T06:18:45;1.70;99.90
9998;DHT22;5038;53.064;8.624;2022-11-20T06:21:15;1.70;99.90
9998;DHT22;5038;53.064;8.624;2022-11-20T06:23:44;1.70;99.90
9998;DHT22;5038;53.064;8.624;2022-11-20T06:26:15;1.70;99.90
9998;DHT22;5038;53.064;8.624;2022-11-20T06:28:44;1.70;99.90
9998;DHT22;5038;53.064;8.624;2022-11-20T06:31:14;1.70;99.90
9998;DHT22;5038;53.064;8.624;2022-11-20T06:33:44;1.70;99.90
9998;DHT22;5038;53.064;8.624;2022-11-20T06:36:14;1.70;99.90
9998;DHT22;5038;53.064;8.624;2022-11-20T06:38:42;1.70;99.90
9998;DHT22;5038;53.064;8.624;2022-11-20T06:41:14;1.70;99.90
9998;DHT22;5038;53.064;8.624;2022-11-20T06:43:42;1.70;99.90
9998;DHT22;5038;53.064;8.624;2022-11-20T06:46:11;1.70;99.90
9998;DHT22;5038;53.064;8.624;2022-11-20T06:48:40;1.60;99.90
9998;DHT22;5038;53.064;8.624;2022-11-20T06:51:09;1.70;99.90
9998;DHT22;5038;53.064;8.624;2022-11-20T06:53:38;1.70;99.90
9998;DHT22;5038;53.064;8.624;2022-11-20T06:56:06;1.60;99.90
9998;DHT22;5038;53.064;8.624;2022-11-20T06:58:35;1.70;99.90
9998;DHT22;5038;53.064;8.624;2022-11-20T07:01:05;1.70;99.90
9998;DHT22;5038;53.064;8.624;2022-11-20T07:03:33;1.70;99.90
9998;DHT22;5038;53.064;8.624;2022-11-20T07:06:02;1.70;99.90
9998;DHT22;5038;53.064;8.624;2022-11-20T07:08:32;1.70;99.90
9998;DHT22;5038;53.064;8.624;2022-11-20T07:11:01;1.70;99.90
9998;DHT22;5038;53.064;8.624;2022-11-20T07:13:30;1.70;99.90
9998;DHT22;5038;53.064;8.624;2022-11-20T07:15:59;1.70;99.90
9998;DHT22;5038;53.064;8.624;2022-11-20T07:18:27;1.70;99.90
9998;DHT22;5038;53.064;8.624;2022-11-20T07:20:55;1.70;99.90
9998;DHT22;5038;53.064;8.624;2022-11-20T07:23:23;1.60;99.90
9998;DHT22;5038;53.064;8.624;2022-11-20T07:25:53;1.60;99.90
9998;DHT22;5038;53.064;8.624;2022-11-20T07:28:23;1.60;99.90
9998;DHT22;5038;53.064;8.624;2022-11-20T07:30:51;1.60;99.90
9998;DHT22;5038;53.064;8.624;2022-11-20T07:33:19;1.60;99.90
9998;DHT22;5038;53.064;8.624;2022-11-20T07:35:47;1.60;99.90
9998;DHT22;5038;53.064;8.624;2022-11-20T07:38:18;1.60;99.90
9998;DHT22;5038;53.064;8.624;2022-11-20T07:40:46;1.60;99.90
9998;DHT22;5038;53.064;8.624;2022-11-20T07:43:17;1.60;99.90
9998;DHT22;5038;53.064;8.624;2022-11-20T07:45:45;1.60;99.90
9998;DHT22;5038;53.064;8.624;2022-11-20T07:48:13;1.60;99.90
9998;DHT22;5038;53.064;8.624;2022-11-20T07:50:41;1.60;99.90
9998;DHT22;5038;53.064;8.624;2022-11-20T07:53:09;1.60;99.90
9998;DHT22;5038;53.064;8.624;2022-11-20T07:55:37;1.60;99.90
9998;DHT22;5038;53.064;8.624;2022-11-20T07:58:05;1.60;99.90
9998;DHT22;5038;53.064;8.624;2022-11-20T08:00:34;1.70;99.90
9998;DHT22;5038;53.064;8.624;2022-11-20T08:03:03;1.70;99.90
9998;DHT22;5038;53.064;8.624;2022-11-20T08:05:32;1.70;99.90
9998;DHT22;5038;53.064;8.624;2022-11-20T08:08:00;1.70;99.90
9998;DHT22;5038;53.064;8.624;2022-11-20T08:10:28;1.70;99.90
9998;DHT22;5038;53.064;8.624;2022-11-20T08:12:56;1.70;99.90
9998;DHT22;5038;53.064;8.624;2022-11-20T08:15:48;1.80;99.90
9998;DHT22;5038;53.064;8.624;2022-11-20T08:18:16;1.80;99.90
9998;DHT22;5038;53.064;8.624;2022-11-20T08:21:02;1.80;99.90
9998;DHT22;5038;53.064;8.624;2022-11-20T08:23:31;1.80;99.90
9998;DHT22;5038;53.064;8.624;2022-11-20T08:25:59;1.80;99.90
9998;DHT22;5038;53.064;8.624;2022-11-20T08:28:27;1.80;99.90
9998;DHT22;5038;53.064;8.624;2022-11-20T08:30:59;1.80;99.90
9998;DHT22;5038;53.064;8.624;2022-11-20T08:33:28;1.90;99.90
9998;DHT22;5038;53.064;8.624;2022-11-20T08:35:59;1.90;99.90
9998;DHT22;5038;53.064;8.624;2022-11-20T08:38:27;1.90;99.90
9998;DHT22;5038;53.064;8.624;2022-11-20T08:40:58;1.90;99.90
9998;DHT22;5038;53.064;8.624;2022-11-20T08:43:44;1.90;99.90
9998;DHT22;5038;53.064;8.624;2022-11-20T08:46:14;1.90;99.90
9998;DHT22;5038;53.064;8.624;2022-11-20T08:48:43;1.90;99.90
9998;DHT22;5038;53.064;8.624;2022-11-20T08:51:11;1.90;99.90
9998;DHT22;5038;53.064;8.624;2022-11-20T08:53:40;1.90;99.90
9998;DHT22;5038;53.064;8.624;2022-11-20T08:56:08;1.90;99.90
9998;DHT22;5038;53.064;8.624;2022-11-20T08:58:37;1.90;99.90
9998;DHT22;5038;53.064;8.624;2022-11-20T09:01:28;1.90;99.90
9998;DHT22;5038;53.064;8.624;2022-11-20T09:03:56;1.90;99.90
9998;DHT22;5038;53.064;8.624;2022-11-20T09:06:26;2.00;99.90
9998;DHT22;5038;53.064;8.624;2022-11-20T09:08:54;2.00;99.90
9998;DHT22;5038;53.064;8.624;2022-11-20T09:11:27;2.00;99.90
9998;DHT22;5038;53.064;8.624;2022-11-20T09:13:55;2.00;99.90
9998;DHT22;5038;53.064;8.624;2022-11-20T09:16:24;2.00;99.90
9998;DHT22;5038;53.064;8.624;2022-11-20T09:18:53;2.10;99.90
9998;DHT22;5038;53.064;8.624;2022-11-20T09:21:41;2.10;99.90
9998;DHT22;5038;53.064;8.624;2022-11-20T09:24:12;2.10;99.90
9998;DHT22;5038;53.064;8.624;2022-11-20T09:26:50;2.10;99.90
9998;DHT22;5038;53.064;8.624;2022-11-20T09:29:18;2.10;99.90
9998;DHT22;5038;53.064;8.624;2022-11-20T09:31:46;2.10;99.90
9998;DHT22;5038;53.064;8.624;2022-11-20T09:34:16;2.10;99.90
9998;DHT22;5038;53.064;8.624;2022-11-20T09:36:44;2.10;99.90
9998;DHT22;5038;53.064;8.624;2022-11-20T09:39:13;2.10;99.90
9998;DHT22;5038;53.064;8.624;2022-11-20T09:41:53;2.10;99.90
9998;DHT22;5038;53.064;8.624;2022-11-20T09:44:48;2.10;99.90
9998;DHT22;5038;53.064;8.624;2022-11-20T09:47:26;2.10;99.90
9998;DHT22;5038;53.064;8.624;2022-11-20T09:50:12;2.20;99.90
9998;DHT22;5038;53.064;8.624;2022-11-20T09:52:56;2.20;99.90
9998;DHT22;5038;53.064;8.624;2022-11-20T09:55:28;2.20;99.90
9998;DHT22;5038;53.064;8.624;2022-11-20T09:57:57;2.20;99.90
9998;DHT22;5038;53.064;8.624;2022-11-20T10:00:28;2.20;99.90
9998;DHT22;5038;53.064;8.624;2022-11-20T10:03:01;2.20;99.90
9998;DHT22;5038;53.064;8.624;2022-11-20T10:05:35;2.20;99.90
9998;DHT22;5038;53.064;8.624;2022-11-20T10:08:13;2.20;99.90
9998;DHT22;5038;53.064;8.624;2022-11-20T10:10:45;2.20;99.90
9998;DHT22;5038;53.064;8.624;2022-11-20T10:13:33;2.20;99.90
9998;DHT22;5038;53.064;8.624;2022-11-20T10:16:13;2.30;99.90
9998;DHT22;5038;53.064;8.624;2022-11-20T10:18:55;2.30;99.90
9998;DHT22;5038;53.064;8.624;2022-11-20T10:21:37;2.20;99.90
9998;DHT22;5038;53.064;8.624;2022-11-20T10:27:17;2.30;99.90
9998;DHT22;5038;53.064;8.624;2022-11-20T10:30:00;2.30;99.90
9998;DHT22;5038;53.064;8.624;2022-11-20T10:32:33;2.30;99.90
9998;DHT22;5038;53.064;8.624;2022-11-20T10:35:10;2.30;99.90
9998;DHT22;5038;53.064;8.624;2022-11-20T10:37:46;2.30;99.90
9998;DHT22;5038;53.064;8.624;2022-11-20T10:40:26;2.30;99.90
9998;DHT22;5038;53.064;8.624;2022-11-20T10:42:59;2.40;99.90
9998;DHT22;5038;53.064;8.624;2022-11-20T10:45:43;2.40;99.90
9998;DHT22;5038;53.064;8.624;2022-11-20T10:48:16;2.50;99.90
9998;DHT22;5038;53.064;8.624;2022-11-20T10:50:53;2.40;99.90
9998;DHT22;5038;53.064;8.624;2022-11-20T10:53:39;2.40;99.90
9998;DHT22;5038;53.064;8.624;2022-11-20T10:56:17;2.40;99.90
9998;DHT22;5038;53.064;8.624;2022-11-20T10:59:04;2.40;99.90
9998;DHT22;5038;53.064;8.624;2022-11-20T11:01:41;2.40;99.90
9998;DHT22;5038;53.064;8.624;2022-11-20T11:04:21;2.50;99.90
9998;DHT22;5038;53.064;8.624;2022-11-20T11:06:57;2.50;99.90
9998;DHT22;5038;53.064;8.624;2022-11-20T11:09:32;2.50;99.90
9998;DHT22;5038;53.064;8.624;2022-11-20T11:12:00;2.50;99.90
9998;DHT22;5038;53.064;8.624;2022-11-20T11:14:42;2.50;99.90
9998;DHT22;5038;53.064;8.624;2022-11-20T11:17:23;2.50;99.90
9998;DHT22;5038;53.064;8.624;2022-11-20T11:20:01;2.50;99.90
9998;DHT22;5038;53.064;8.624;2022-11-20T11:22:30;2.50;99.90
9998;DHT22;5038;53.064;8.624;2022-11-20T11:25:01;2.50;99.90
9998;DHT22;5038;53.064;8.624;2022-11-20T11:27:29;2.50;99.90
9998;DHT22;5038;53.064;8.624;2022-11-20T11:30:13;2.50;99.90
9998;DHT22;5038;53.064;8.624;2022-11-20T11:32:41;2.50;99.90
9998;DHT22;5038;53.064;8.624;2022-11-20T11:35:22;2.50;99.90
9998;DHT22;5038;53.064;8.624;2022-11-20T11:37:51;2.50;99.90
9998;DHT22;5038;53.064;8.624;2022-11-20T11:40:22;2.50;99.90
9998;DHT22;5038;53.064;8.624;2022-11-20T11:42:56;2.40;99.90
9998;DHT22;5038;53.064;8.624;2022-11-20T11:45:25;2.40;99.90
9998;DHT22;5038;53.064;8.624;2022-11-20T11:47:55;2.40;99.90
9998;DHT22;5038;53.064;8.624;2022-11-20T11:50:25;2.30;99.90
9998;DHT22;5038;53.064;8.624;2022-11-20T11:52:59;2.20;99.90
9998;DHT22;5038;53.064;8.624;2022-11-20T11:55:35;2.20;99.90
9998;DHT22;5038;53.064;8.624;2022-11-20T11:58:14;2.20;99.90
9998;DHT22;5038;53.064;8.624;2022-11-20T12:00:50;2.10;99.90
9998;DHT22;5038;53.064;8.624;2022-11-20T12:03:23;2.10;99.90
9998;DHT22;5038;53.064;8.624;2022-11-20T12:05:57;2.10;99.90
9998;DHT22;5038;53.064;8.624;2022-11-20T12:08:31;2.10;99.90
9998;DHT22;5038;53.064;8.624;2022-11-20T12:11:05;2.10;99.90
9998;DHT22;5038;53.064;8.624;2022-11-20T12:13:47;2.10;99.90
9998;DHT22;5038;53.064;8.624;2022-11-20T12:16:19;2.20;99.90
9998;DHT22;5038;53.064;8.624;2022-11-20T12:18:49;2.10;99.90
9998;DHT22;5038;53.064;8.624;2022-11-20T12:21:20;2.10;99.90
9998;DHT22;5038;53.064;8.624;2022-11-20T12:24:07;2.20;99.90
9998;DHT22;5038;53.064;8.624;2022-11-20T12:26:54;2.20;99.90
9998;DHT22;5038;53.064;8.624;2022-11-20T12:29:38;2.10;99.90
9998;DHT22;5038;53.064;8.624;2022-11-20T12:32:35;2.10;99.90
9998;DHT22;5038;53.064;8.624;2022-11-20T12:35:19;2.20;99.90
9998;DHT22;5038;53.064;8.624;2022-11-20T12:38:01;2.20;99.90
9998;DHT22;5038;53.064;8.624;2022-11-20T12:40:39;2.20;99.90
9998;DHT22;5038;53.064;8.624;2022-11-20T12:43:19;2.20;99.90
9998;DHT22;5038;53.064;8.624;2022-11-20T12:46:16;2.20;99.90
9998;DHT22;5038;53.064;8.624;2022-11-20T12:48:54;2.30;99.90
9998;DHT22;5038;53.064;8.624;2022-11-20T12:51:36;2.30;99.90
9998;DHT22;5038;53.064;8.624;2022-11-20T12:57:20;2.40;99.90
9998;DHT22;5038;53.064;8.624;2022-11-20T13:00:01;2.30;99.90
9998;DHT22;5038;53.064;8.624;2022-11-20T13:02:39;2.40;99.90
9998;DHT22;5038;53.064;8.624;2022-11-20T13:05:18;2.40;99.90
9998;DHT22;5038;53.064;8.624;2022-11-20T13:07:48;2.40;99.90
9998;DHT22;5038;53.064;8.624;2022-11-20T13:10:23;2.40;99.90
9998;DHT22;5038;53.064;8.624;2022-11-20T13:13:00;2.40;99.90
9998;DHT22;5038;53.064;8.624;2022-11-20T13:15:44;2.50;99.90
9998;DHT22;5038;53.064;8.624;2022-11-20T13:18:14;2.50;99.90
9998;DHT22;5038;53.064;8.624;2022-11-20T13:20:44;2.50;99.90
9998;DHT22;5038;53.064;8.624;2022-11-20T13:23:23;2.50;99.90
9998;DHT22;5038;53.064;8.624;2022-11-20T13:26:06;2.60;99.90
9998;DHT22;5038;53.064;8.624;2022-11-20T13:28:42;2.50;99.90
9998;DHT22;5038;53.064;8.624;2022-11-20T13:31:28;2.50;99.90
9998;DHT22;5038;53.064;8.624;2022-11-20T13:34:00;2.50;99.90
9998;DHT22;5038;53.064;8.624;2022-11-20T13:36:29;2.50;99.90
9998;DHT22;5038;53.064;8.624;2022-11-20T13:38:59;2.60;99.90
9998;DHT22;5038;53.064;8.624;2022-11-20T13:41:29;2.60;99.90
9998;DHT22;5038;53.064;8.624;2022-11-20T13:44:13;2.60;99.90
9998;DHT22;5038;53.064;8.624;2022-11-20T13:46:45;2.60;99.90
9998;DHT22;5038;53.064;8.624;2022-11-20T13:49:25;2.60;99.90
9998;DHT22;5038;53.064;8.624;2022-11-20T13:52:03;2.60;99.90
9998;DHT22;5038;53.064;8.624;2022-11-20T13:54:55;2.60;99.90
9998;DHT22;5038;53.064;8.624;2022-11-20T13:57:45;2.60;99.90
9998;DHT22;5038;53.064;8.624;2022-11-20T14:00:18;2.60;99.90
9998;DHT22;5038;53.064;8.624;2022-11-20T14:02:59;2.60;99.90
9998;DHT22;5038;53.064;8.624;2022-11-20T14:05:32;2.60;99.90
9998;DHT22;5038;53.064;8.624;2022-11-20T14:08:03;2.60;99.90
9998;DHT22;5038;53.064;8.624;2022-11-20T14:10:32;2.60;99.90
9998;DHT22;5038;53.064;8.624;2022-11-20T14:13:10;2.60;99.90
9998;DHT22;5038;53.064;8.624;2022-11-20T14:15:38;2.60;99.90
9998;DHT22;5038;53.064;8.624;2022-11-20T14:18:14;2.60;99.90
9998;DHT22;5038;53.064;8.624;2022-11-20T14:20:43;2.60;99.90
9998;DHT22;5038;53.064;8.624;2022-11-20T14:23:11;2.60;99.90
9998;DHT22;5038;53.064;8.624;2022-11-20T14:25:42;2.60;99.90
9998;DHT22;5038;53.064;8.624;2022-11-20T14:28:21;2.60;99.90
9998;DHT22;5038;53.064;8.624;2022-11-20T14:30:52;2.60;99.90
9998;DHT22;5038;53.064;8.624;2022-11-20T14:33:23;2.60;99.90
9998;DHT22;5038;53.064;8.624;2022-11-20T14:35:54;2.50;99.90
9998;DHT22;5038;53.064;8.624;2022-11-20T14:38:26;2.50;99.90
9998;DHT22;5038;53.064;8.624;2022-11-20T14:41:05;2.60;99.90
9998;DHT22;5038;53.064;8.624;2022-11-20T14:43:34;2.50;99.90
9998;DHT22;5038;53.064;8.624;2022-11-20T14:46:07;2.50;99.90
9998;DHT22;5038;53.064;8.624;2022-11-20T14:48:40;2.50;99.90
9998;DHT22;5038;53.064;8.624;2022-11-20T14:51:09;2.50;99.90
9998;DHT22;5038;53.064;8.624;2022-11-20T14:53:38;2.40;99.90
9998;DHT22;5038;53.064;8.624;2022-11-20T14:56:08;2.40;99.90
9998;DHT22;5038;53.064;8.624;2022-11-20T14:58:36;2.40;99.90
9998;DHT22;5038;53.064;8.624;2022-11-20T15:01:06;2.40;99.90
9998;DHT22;5038;53.064;8.624;2022-11-20T15:03:38;2.40;99.90
9998;DHT22;5038;53.064;8.624;2022-11-20T15:06:09;2.30;99.90
9998;DHT22;5038;53.064;8.624;2022-11-20T15:08:38;2.30;99.90
9998;DHT22;5038;53.064;8.624;2022-11-20T15:11:16;2.30;99.90
9998;DHT22;5038;53.064;8.624;2022-11-20T15:13:45;2.20;99.90
9998;DHT22;5038;53.064;8.624;2022-11-20T15:16:18;2.20;99.90
9998;DHT22;5038;53.064;8.624;2022-11-20T15:18:48;2.20;99.90
9998;DHT22;5038;53.064;8.624;2022-11-20T15:21:18;2.20;99.90
9998;DHT22;5038;53.064;8.624;2022-11-20T15:23:47;2.20;99.90
9998;DHT22;5038;53.064;8.624;2022-11-20T15:26:20;2.20;99.90
9998;DHT22;5038;53.064;8.624;2022-11-20T15:28:49;2.20;99.90
9998;DHT22;5038;53.064;8.624;2022-11-20T15:31:20;2.10;99.90
9998;DHT22;5038;53.064;8.624;2022-11-20T15:33:50;2.10;99.90
9998;DHT22;5038;53.064;8.624;2022-11-20T15:36:18;2.10;99.90
9998;DHT22;5038;53.064;8.624;2022-11-20T15:38:46;2.00;99.90
9998;DHT22;5038;53.064;8.624;2022-11-20T15:41:14;2.00;99.90
9998;DHT22;5038;53.064;8.624;2022-11-20T15:43:42;2.00;99.90
9998;DHT22;5038;53.064;8.624;2022-11-20T15:46:13;2.00;99.90
9998;DHT22;5038;53.064;8.624;2022-11-20T15:48:44;1.90;99.90
9998;DHT22;5038;53.064;8.624;2022-11-20T15:51:22;1.90;99.90
9998;DHT22;5038;53.064;8.624;2022-11-20T15:53:52;1.90;99.90
9998;DHT22;5038;53.064;8.624;2022-11-20T15:56:22;1.80;99.90
9998;DHT22;5038;53.064;8.624;2022-11-20T15:58:50;1.80;99.90
9998;DHT22;5038;53.064;8.624;2022-11-20T16:01:20;1.70;99.90
9998;DHT22;5038;53.064;8.624;2022-11-20T16:03:49;1.70;99.90
9998;DHT22;5038;53.064;8.624;2022-11-20T16:06:18;1.70;99.90
9998;DHT22;5038;53.064;8.624;2022-11-20T16:08:46;1.70;99.90
9998;DHT22;5038;53.064;8.624;2022-11-20T16:11:16;1.60;99.90
9998;DHT22;5038;53.064;8.624;2022-11-20T16:13:44;1.60;99.90
9998;DHT22;5038;53.064;8.624;2022-11-20T16:16:32;1.50;99.90
9998;DHT22;5038;53.064;8.624;2022-11-20T16:19:01;1.50;99.90
9998;DHT22;5038;53.064;8.624;2022-11-20T16:21:31;1.50;99.90
9998;DHT22;5038;53.064;8.624;2022-11-20T16:23:59;1.50;99.90
9998;DHT22;5038;53.064;8.624;2022-11-20T16:26:28;1.40;99.90
9998;DHT22;5038;53.064;8.624;2022-11-20T16:28:58;1.40;99.90
9998;DHT22;5038;53.064;8.624;2022-11-20T16:31:26;1.40;99.90
9998;DHT22;5038;53.064;8.624;2022-11-20T16:33:56;1.30;99.90
9998;DHT22;5038;53.064;8.624;2022-11-20T16:36:26;1.30;99.90
9998;DHT22;5038;53.064;8.624;2022-11-20T16:38:57;1.30;99.90
9998;DHT22;5038;53.064;8.624;2022-11-20T16:41:26;1.30;99.90
9998;DHT22;5038;53.064;8.624;2022-11-20T16:43:56;1.20;99.90
9998;DHT22;5038;53.064;8.624;2022-11-20T16:46:26;1.20;99.90
9998;DHT22;5038;53.064;8.624;2022-11-20T16:48:56;1.20;99.90
9998;DHT22;5038;53.064;8.624;2022-11-20T16:51:25;1.20;99.90
9998;DHT22;5038;53.064;8.624;2022-11-20T16:53:55;1.10;99.90